Time;durP1;ratioP1;P1;durP2;ratioP2;P2;SDS_P1;SDS_P2;PMS_P1;PMS_P2;Temp;Humidity;BMP_temperature;BMP_pressure;BME280_temperature;BME280_humidity;BME280_pressure;Samples;Min_cycle;Max_cycle;Signal;HPM_P1;HPM_P2
2023/04/16 00:01:22;;;;;;;10.67;9.67;;;7.60;1.00;;;;;;5057094;28;20277;-44
2023/04/16 00:03:48;;;;;;;11.33;10.23;;;7.50;1.00;;;;;;5056638;28;20173;-44
2023/04/16 00:06:13;;;;;;;11.13;10.13;;;7.50;1.00;;;;;;5056854;28;20466;-45
2023/04/16 00:08:39;;;;;;;11.57;10.57;;;7.50;1.00;;;;;;5056951;28;20208;-42
2023/04/16 00:11:06;;;;;;;11.70;10.60;;;7.40;1.00;;;;;;5058899;28;20177;-45
2023/04/16 00:13:31;;;;;;;11.33;10.13;;;7.40;1.00;;;;;;5056592;28;20440;-46
2023/04/16 00:15:58;;;;;;;11.87;10.70;;;7.40;1.00;;;;;;5056982;28;20448;-43
2023/04/16 00:18:23;;;;;;;11.70;10.60;;;7.40;1.00;;;;;;5056226;28;20444;-43
2023/04/16 00:20:49;;;;;;;11.53;10.33;;;7.40;1.00;;;;;;5056254;28;20412;-44
2023/04/16 00:23:15;;;;;;;12.63;11.40;;;7.40;1.00;;;;;;5054151;28;20272;-43
2023/04/16 00:25:41;;;;;;;12.60;11.37;;;7.40;1.00;;;;;;5054502;28;20424;-44
2023/04/16 00:28:07;;;;;;;12.27;11.13;;;7.40;1.00;;;;;;5055825;28;20492;-43
2023/04/16 00:30:33;;;;;;;12.03;10.83;;;7.30;1.00;;;;;;5055115;28;20420;-43
2023/04/16 00:32:58;;;;;;;12.40;11.20;;;7.30;1.00;;;;;;5054536;28;20450;-46
2023/04/16 00:35:24;;;;;;;12.80;11.60;;;7.30;1.00;;;;;;5055166;28;20170;-43
2023/04/16 00:37:50;;;;;;;12.43;11.23;;;7.70;1.00;;;;;;5057018;28;20259;-45
2023/04/16 00:40:15;;;;;;;12.10;10.83;;;7.70;1.00;;;;;;5056788;28;20174;-44
2023/04/16 00:42:41;;;;;;;11.60;10.47;;;7.70;1.00;;;;;;5055991;28;20506;-43
2023/04/16 00:45:07;;;;;;;12.00;10.80;;;7.60;1.00;;;;;;5056879;28;20181;-42
2023/04/16 00:47:33;;;;;;;12.73;11.50;;;7.60;1.00;;;;;;5055892;28;20209;-41
2023/04/16 00:49:58;;;;;;;11.70;10.60;;;7.50;1.00;;;;;;5056516;28;20548;-42
2023/04/16 00:52:24;;;;;;;11.17;10.07;;;7.50;1.00;;;;;;5054316;28;20189;-45
2023/04/16 00:54:51;;;;;;;11.83;10.73;;;7.40;1.00;;;;;;5055753;28;20174;-43
2023/04/16 00:57:19;;;;;;;11.27;10.17;;;7.40;1.00;;;;;;5055639;28;20521;-41
2023/04/16 00:59:45;;;;;;;12.57;11.17;;;7.40;1.00;;;;;;5055673;28;20503;-42
2023/04/16 01:02:11;;;;;;;12.47;11.27;;;7.40;1.00;;;;;;5056126;28;20528;-41
2023/04/16 01:04:37;;;;;;;12.83;11.53;;;7.40;1.00;;;;;;5057239;28;20258;-42
2023/04/16 01:07:02;;;;;;;12.43;11.23;;;7.30;1.00;;;;;;5057544;28;20883;-42
2023/04/16 01:09:28;;;;;;;13.20;11.80;;;7.30;1.00;;;;;;5056236;28;20520;-43
2023/04/16 01:11:53;;;;;;;13.03;11.73;;;7.30;1.00;;;;;;5056492;28;20230;-41
2023/04/16 01:14:19;;;;;;;13.07;11.80;;;7.30;1.00;;;;;;5056086;28;20180;-42
2023/04/16 01:16:44;;;;;;;12.67;11.47;;;7.30;1.00;;;;;;5055758;28;20607;-41
2023/04/16 01:19:10;;;;;;;12.10;10.90;;;7.30;1.00;;;;;;5056560;28;20269;-44
2023/04/16 01:21:36;;;;;;;13.20;11.47;;;7.30;1.00;;;;;;5056011;28;20300;-43
2023/04/16 01:24:03;;;;;;;11.60;10.47;;;7.30;1.00;;;;;;5057159;28;20165;-44
2023/04/16 01:26:29;;;;;;;12.53;11.23;;;7.20;1.00;;;;;;5055158;28;20572;-42
2023/04/16 01:28:55;;;;;;;11.70;10.50;;;7.30;1.00;;;;;;5056178;28;20423;-42
2023/04/16 01:32:07;;;;;;;10.57;9.57;;;7.30;1.00;;;;;;5057805;28;20420;-43
2023/04/16 01:34:33;;;;;;;11.10;10.00;;;7.20;1.00;;;;;;5057312;28;20255;-43
2023/04/16 01:36:58;;;;;;;10.83;9.70;;;7.20;1.00;;;;;;5057327;28;20416;-45
2023/04/16 01:39:24;;;;;;;10.70;9.60;;;7.20;1.00;;;;;;5056772;28;20268;-47
2023/04/16 01:41:50;;;;;;;11.93;10.73;;;7.20;1.00;;;;;;5054457;28;20170;-44
2023/04/16 01:44:16;;;;;;;10.40;9.40;;;7.20;1.00;;;;;;5055357;28;20435;-42
2023/04/16 01:46:41;;;;;;;9.90;9.00;;;7.20;1.00;;;;;;5055999;28;20177;-44
2023/04/16 01:49:07;;;;;;;10.53;9.53;;;7.20;1.00;;;;;;5054167;28;20232;-43
2023/04/16 01:51:33;;;;;;;8.80;7.90;;;7.20;1.00;;;;;;5055180;28;20408;-42
2023/04/16 01:53:59;;;;;;;9.37;8.47;;;7.20;1.00;;;;;;5056428;28;20428;-42
2023/04/16 01:56:25;;;;;;;10.07;9.07;;;7.20;1.00;;;;;;5055755;28;20166;-42
2023/04/16 01:58:52;;;;;;;9.10;8.20;;;7.20;1.00;;;;;;5055094;28;20802;-42
2023/04/16 02:01:17;;;;;;;10.00;8.60;;;7.20;1.00;;;;;;5055583;28;20180;-43
2023/04/16 02:03:43;;;;;;;9.07;8.23;;;7.20;1.00;;;;;;5054827;28;20749;-42
2023/04/16 02:06:08;;;;;;;8.63;7.73;;;7.20;1.00;;;;;;5055445;28;20178;-44
2023/04/16 02:08:34;;;;;;;8.00;7.20;;;7.20;1.00;;;;;;5055759;28;20210;-43
2023/04/16 02:11:00;;;;;;;8.60;7.80;;;7.20;1.00;;;;;;5056572;28;20170;-42
2023/04/16 02:13:25;;;;;;;7.87;7.13;;;7.20;1.00;;;;;;5055578;28;20177;-44
2023/04/16 02:15:51;;;;;;;8.30;7.40;;;7.20;1.00;;;;;;5055562;28;20303;-44
2023/04/16 02:18:17;;;;;;;8.37;7.30;;;7.20;1.00;;;;;;5055608;28;20189;-44
2023/04/16 02:20:45;;;;;;;8.80;7.90;;;7.10;1.00;;;;;;5055493;28;20416;-43
2023/04/16 02:23:11;;;;;;;8.17;7.37;;;7.20;1.00;;;;;;5055485;28;20249;-42
2023/04/16 02:25:40;;;;;;;7.70;6.93;;;7.20;1.00;;;;;;5055645;28;20674;-43
2023/04/16 02:28:08;;;;;;;7.87;7.10;;;7.10;1.00;;;;;;5056638;28;20568;-42
2023/04/16 02:30:35;;;;;;;8.10;7.30;;;7.10;1.00;;;;;;5057124;28;20482;-43
2023/04/16 02:33:03;;;;;;;9.17;7.60;;;7.20;1.00;;;;;;5056535;28;20408;-45
2023/04/16 02:35:29;;;;;;;8.97;8.03;;;7.20;1.00;;;;;;5056843;28;20494;-42
2023/04/16 02:37:55;;;;;;;7.83;6.80;;;7.20;1.00;;;;;;5055864;28;20436;-42
2023/04/16 02:40:20;;;;;;;8.27;6.70;;;7.10;1.00;;;;;;5056125;28;20177;-42
2023/04/16 02:42:46;;;;;;;8.50;7.70;;;7.10;1.00;;;;;;5054114;28;20440;-45
2023/04/16 02:45:12;;;;;;;8.43;7.53;;;7.20;1.00;;;;;;5054307;28;20517;-44
2023/04/16 02:47:37;;;;;;;9.77;8.77;;;7.20;1.00;;;;;;5054348;28;20579;-43
2023/04/16 02:50:03;;;;;;;8.00;7.07;;;7.10;1.00;;;;;;5054046;28;20189;-44
2023/04/16 02:52:29;;;;;;;8.40;7.60;;;7.10;1.00;;;;;;5054265;28;20190;-44
2023/04/16 02:54:54;;;;;;;7.60;6.63;;;7.20;1.00;;;;;;5054094;28;20678;-43
2023/04/16 02:57:20;;;;;;;7.47;6.77;;;7.10;1.00;;;;;;5054430;28;20192;-44
2023/04/16 02:59:45;;;;;;;10.03;7.93;;;7.10;1.00;;;;;;5054055;28;20182;-43
2023/04/16 03:02:12;;;;;;;7.50;6.70;;;7.10;1.00;;;;;;5053723;28;20627;-44
2023/04/16 03:04:38;;;;;;;7.57;6.87;;;7.10;1.00;;;;;;5053529;28;20214;-43
2023/04/16 03:07:03;;;;;;;7.80;7.00;;;7.10;1.00;;;;;;5053221;28;20867;-43
2023/04/16 03:09:29;;;;;;;8.70;7.80;;;7.10;1.00;;;;;;5054458;28;20174;-43
2023/04/16 03:11:55;;;;;;;9.83;8.53;;;7.10;1.00;;;;;;5056650;28;20170;-43
2023/04/16 03:14:21;;;;;;;8.00;7.20;;;7.10;1.00;;;;;;5057225;28;20178;-42
2023/04/16 03:16:46;;;;;;;8.57;7.67;;;7.10;1.00;;;;;;5057662;28;20832;-42
2023/04/16 03:19:12;;;;;;;11.73;8.50;;;7.10;1.00;;;;;;5058455;28;20184;-43
2023/04/16 03:21:37;;;;;;;12.23;9.13;;;7.10;1.00;;;;;;5058046;28;20494;-43
2023/04/16 03:24:03;;;;;;;9.67;8.77;;;7.10;1.00;;;;;;5058845;28;20181;-43
2023/04/16 03:26:29;;;;;;;9.70;8.67;;;7.10;1.00;;;;;;5058882;28;20225;-43
2023/04/16 03:28:54;;;;;;;10.80;9.70;;;7.10;1.00;;;;;;5058703;28;20286;-45
2023/04/16 03:31:22;;;;;;;11.57;8.90;;;7.10;1.00;;;;;;5058439;28;20189;-44
2023/04/16 03:33:48;;;;;;;9.80;8.73;;;7.10;1.00;;;;;;5058885;28;20522;-44
2023/04/16 03:36:13;;;;;;;12.60;9.80;;;7.10;1.00;;;;;;5059578;28;20507;-42
2023/04/16 03:38:39;;;;;;;12.83;10.30;;;7.10;1.00;;;;;;5059596;28;20254;-42
2023/04/16 03:41:05;;;;;;;12.23;10.60;;;7.10;1.00;;;;;;5059370;28;20319;-42
2023/04/16 03:43:30;;;;;;;11.93;9.87;;;7.10;1.00;;;;;;5059533;28;20190;-41
2023/04/16 03:45:56;;;;;;;13.30;11.37;;;7.00;1.00;;;;;;5059358;28;20442;-42
2023/04/16 03:48:21;;;;;;;15.10;12.13;;;7.00;1.00;;;;;;5059251;28;20243;-42
2023/04/16 03:50:47;;;;;;;12.73;11.00;;;7.00;1.00;;;;;;5057420;28;20567;-42
2023/04/16 03:53:13;;;;;;;12.10;10.60;;;7.00;1.00;;;;;;5058250;28;20184;-42
2023/04/16 03:55:39;;;;;;;10.93;9.47;;;7.10;1.00;;;;;;5058347;28;20177;-42
2023/04/16 03:58:05;;;;;;;11.37;10.10;;;7.00;1.00;;;;;;5056338;28;20181;-43
2023/04/16 04:00:30;;;;;;;11.33;9.70;;;7.00;1.00;;;;;;5057856;28;20486;-44
2023/04/16 04:02:56;;;;;;;12.63;10.60;;;7.00;1.00;;;;;;5057397;28;20249;-46
2023/04/16 04:05:22;;;;;;;12.60;10.27;;;7.00;1.00;;;;;;5058713;28;20166;-43
2023/04/16 04:07:47;;;;;;;13.17;9.40;;;7.00;1.00;;;;;;5057807;28;20210;-43
2023/04/16 04:10:13;;;;;;;12.67;10.13;;;7.00;1.00;;;;;;5057642;28;20450;-43
2023/04/16 04:12:38;;;;;;;12.60;9.80;;;7.00;1.00;;;;;;5058348;28;20174;-45
2023/04/16 04:15:05;;;;;;;12.10;9.27;;;7.00;1.00;;;;;;5058372;28;20440;-43
2023/04/16 04:17:30;;;;;;;11.17;9.03;;;6.90;1.00;;;;;;5058472;28;20193;-42
2023/04/16 04:19:56;;;;;;;12.30;9.27;;;6.90;1.00;;;;;;5057677;28;20887;-44
2023/04/16 04:22:22;;;;;;;12.17;8.87;;;6.90;1.00;;;;;;5058723;28;20169;-42
2023/04/16 04:24:47;;;;;;;11.90;8.97;;;7.00;1.00;;;;;;5058143;28;20432;-44
2023/04/16 04:27:13;;;;;;;10.97;9.80;;;7.00;1.00;;;;;;5058478;28;20225;-43
2023/04/16 04:29:38;;;;;;;10.20;8.93;;;7.00;1.00;;;;;;5058158;28;20199;-44
2023/04/16 04:32:04;;;;;;;10.67;9.20;;;7.00;1.00;;;;;;5058662;28;20447;-43
2023/04/16 04:34:30;;;;;;;10.97;8.50;;;6.90;1.00;;;;;;5058984;28;20182;-41
2023/04/16 04:36:55;;;;;;;9.80;8.07;;;7.00;1.00;;;;;;5058286;28;20174;-42
2023/04/16 04:39:21;;;;;;;10.47;8.40;;;6.90;1.00;;;;;;5057743;28;20192;-43
2023/04/16 04:41:47;;;;;;;9.90;7.87;;;7.00;1.00;;;;;;5057580;28;20539;-43
2023/04/16 04:44:13;;;;;;;10.40;8.47;;;7.00;1.00;;;;;;5058468;28;20202;-44
2023/04/16 04:46:39;;;;;;;10.20;9.00;;;7.00;1.00;;;;;;5058125;28;20415;-42
2023/04/16 04:49:05;;;;;;;10.30;8.87;;;7.00;1.00;;;;;;5058045;28;20181;-43
2023/04/16 04:51:31;;;;;;;9.20;7.43;;;7.00;1.00;;;;;;5057972;28;20472;-43
2023/04/16 04:53:57;;;;;;;10.17;8.83;;;7.00;1.00;;;;;;5056943;28;20484;-43
2023/04/16 04:56:22;;;;;;;11.07;9.97;;;7.00;1.00;;;;;;5057820;28;20477;-42
2023/04/16 04:58:51;;;;;;;10.00;9.00;;;7.00;1.00;;;;;;5055840;28;20182;-43
2023/04/16 05:01:17;;;;;;;11.07;8.77;;;7.00;1.00;;;;;;5057275;28;20185;-45
2023/04/16 05:03:43;;;;;;;10.97;9.83;;;7.00;1.00;;;;;;5058128;28;20481;-45
2023/04/16 05:06:08;;;;;;;11.33;10.13;;;6.90;1.00;;;;;;5057877;28;20176;-43
2023/04/16 05:08:34;;;;;;;11.53;9.50;;;6.90;1.00;;;;;;5057038;28;20476;-43
2023/04/16 05:11:00;;;;;;;12.83;11.03;;;6.90;1.00;;;;;;5057042;28;20181;-42
2023/04/16 05:13:26;;;;;;;12.60;10.17;;;6.90;1.00;;;;;;5057173;28;20459;-42
2023/04/16 05:15:51;;;;;;;12.50;10.10;;;7.00;1.00;;;;;;5056047;28;20500;-43
2023/04/16 05:18:17;;;;;;;15.00;10.77;;;7.00;1.00;;;;;;5056652;28;20335;-43
2023/04/16 05:20:42;;;;;;;12.37;9.53;;;6.90;1.00;;;;;;5056014;28;20181;-44
2023/04/16 05:23:08;;;;;;;11.47;10.03;;;6.90;1.00;;;;;;5056421;28;20598;-44
2023/04/16 05:25:33;;;;;;;11.70;10.37;;;6.90;1.00;;;;;;5057297;28;20201;-44
2023/04/16 05:27:59;;;;;;;14.20;12.33;;;6.90;1.00;;;;;;5056774;28;20312;-42
2023/04/16 05:30:25;;;;;;;14.53;10.90;;;7.00;1.00;;;;;;5057108;28;20201;-44
2023/04/16 05:32:50;;;;;;;16.17;12.20;;;6.90;1.00;;;;;;5055222;28;20318;-42
2023/04/16 05:35:16;;;;;;;15.83;13.10;;;6.90;1.00;;;;;;5057046;28;20468;-42
2023/04/16 05:37:41;;;;;;;19.47;13.83;;;6.90;1.00;;;;;;5056670;28;20264;-43
2023/04/16 05:40:08;;;;;;;25.20;17.20;;;6.90;1.00;;;;;;5055812;28;20177;-43
2023/04/16 05:42:33;;;;;;;24.37;18.60;;;6.90;1.00;;;;;;5055319;28;20236;-45
2023/04/16 05:45:00;;;;;;;22.57;18.70;;;6.90;1.00;;;;;;5056071;28;20440;-42
2023/04/16 05:47:26;;;;;;;29.30;20.10;;;6.90;1.00;;;;;;5057005;28;20202;-43
2023/04/16 05:49:52;;;;;;;23.30;17.63;;;6.90;1.00;;;;;;5057102;28;20435;-42
2023/04/16 05:52:17;;;;;;;24.20;18.73;;;6.90;1.00;;;;;;5056310;28;20182;-43
2023/04/16 05:54:43;;;;;;;20.53;16.30;;;6.90;1.00;;;;;;5056976;28;20243;-42
2023/04/16 05:57:08;;;;;;;28.53;19.70;;;6.90;1.00;;;;;;5057419;28;20177;-43
2023/04/16 05:59:34;;;;;;;26.63;20.10;;;6.90;1.00;;;;;;5056913;28;20524;-42
2023/04/16 06:02:00;;;;;;;24.70;20.20;;;7.00;1.00;;;;;;5056865;28;20178;-43
2023/04/16 06:04:25;;;;;;;27.97;20.07;;;7.00;1.00;;;;;;5056763;28;20174;-42
2023/04/16 06:06:53;;;;;;;26.13;21.20;;;6.90;1.00;;;;;;5055308;28;20189;-42
2023/04/16 06:09:18;;;;;;;27.40;20.30;;;7.00;1.00;;;;;;5054646;28;20173;-42
2023/04/16 06:11:44;;;;;;;26.80;21.20;;;6.90;1.00;;;;;;5054681;28;20914;-42
2023/04/16 06:14:29;;;;;;;27.77;20.43;;;6.90;1.00;;;;;;5053670;28;20254;-43
2023/04/16 06:16:55;;;;;;;26.43;21.90;;;6.90;1.00;;;;;;5055081;28;20424;-44
2023/04/16 06:19:20;;;;;;;27.93;20.50;;;6.90;1.00;;;;;;5054672;28;20427;-43
2023/04/16 06:21:46;;;;;;;28.40;20.40;;;6.90;1.00;;;;;;5056123;28;20173;-43
2023/04/16 06:24:12;;;;;;;27.70;20.00;;;6.90;1.00;;;;;;5055018;28;20193;-42
2023/04/16 06:26:37;;;;;;;27.70;19.70;;;6.90;1.00;;;;;;5056454;28;20228;-42
2023/04/16 06:29:03;;;;;;;28.93;20.57;;;6.90;1.00;;;;;;5056539;28;20244;-42
2023/04/16 06:31:29;;;;;;;29.87;23.10;;;6.90;1.00;;;;;;5056445;28;20471;-42
2023/04/16 06:33:55;;;;;;;26.93;19.77;;;6.90;1.00;;;;;;5054257;28;20436;-42
2023/04/16 06:36:20;;;;;;;25.23;19.00;;;6.90;1.00;;;;;;5055815;28;20418;-43
2023/04/16 06:38:46;;;;;;;30.17;22.97;;;6.90;1.00;;;;;;5055467;28;20217;-44
2023/04/16 06:41:13;;;;;;;32.10;23.13;;;6.90;1.00;;;;;;5054997;28;20188;-45
2023/04/16 06:43:38;;;;;;;33.47;23.53;;;6.90;1.00;;;;;;5056886;28;20185;-42
2023/04/16 06:46:04;;;;;;;36.03;25.57;;;6.90;1.00;;;;;;5059653;28;20427;-45
2023/04/16 06:48:30;;;;;;;31.53;23.93;;;6.90;1.00;;;;;;5060618;28;20239;-44
2023/04/16 06:50:56;;;;;;;32.03;24.67;;;6.90;1.00;;;;;;5059590;28;20431;-42
2023/04/16 06:53:22;;;;;;;36.20;25.17;;;6.90;1.00;;;;;;5060254;28;20230;-41
2023/04/16 06:55:48;;;;;;;32.07;24.20;;;6.90;1.00;;;;;;5042956;28;20455;-42
2023/04/16 06:58:13;;;;;;;33.30;23.77;;;6.90;1.00;;;;;;5058830;28;20427;-41
2023/04/16 07:00:39;;;;;;;34.13;24.80;;;6.90;1.00;;;;;;5059011;28;20589;-41
2023/04/16 07:03:05;;;;;;;39.50;27.00;;;6.90;1.00;;;;;;5059906;28;20318;-45
2023/04/16 07:05:30;;;;;;;37.63;26.73;;;6.90;1.00;;;;;;5059414;28;20158;-42
2023/04/16 07:07:57;;;;;;;35.33;25.03;;;6.90;1.00;;;;;;5060155;28;20606;-42
2023/04/16 07:10:23;;;;;;;34.80;26.50;;;6.90;1.00;;;;;;5058076;28;20768;-44
2023/04/16 07:12:49;;;;;;;37.47;27.20;;;6.90;1.00;;;;;;5055916;28;20405;-41
2023/04/16 07:15:15;;;;;;;36.00;26.70;;;7.00;1.00;;;;;;5056706;28;20192;-42
2023/04/16 07:17:41;;;;;;;35.67;24.53;;;7.00;1.00;;;;;;5054243;28;20243;-42
2023/04/16 07:20:07;;;;;;;35.90;26.50;;;7.00;1.00;;;;;;5055828;28;20439;-42
2023/04/16 07:22:33;;;;;;;34.37;25.10;;;7.10;1.00;;;;;;5058082;28;20282;-42
2023/04/16 07:24:59;;;;;;;33.40;24.07;;;7.10;1.00;;;;;;5058383;28;20468;-42
2023/04/16 07:27:24;;;;;;;34.17;23.70;;;7.10;1.00;;;;;;5057336;28;20221;-44
2023/04/16 07:29:50;;;;;;;31.93;23.00;;;7.10;1.00;;;;;;5059253;28;20213;-42
2023/04/16 07:32:16;;;;;;;35.57;24.87;;;7.10;1.00;;;;;;5057459;28;20570;-45
2023/04/16 07:34:41;;;;;;;30.07;24.10;;;7.10;1.00;;;;;;5055903;28;20279;-43
2023/04/16 07:37:07;;;;;;;31.10;24.60;;;7.10;1.00;;;;;;5055679;28;20177;-43
2023/04/16 07:39:33;;;;;;;31.27;22.20;;;7.10;1.00;;;;;;5057564;28;20202;-43
2023/04/16 07:41:58;;;;;;;32.80;22.87;;;7.10;1.00;;;;;;5057274;28;20772;-42
2023/04/16 07:44:24;;;;;;;31.57;24.23;;;7.10;1.00;;;;;;5057219;28;20197;-44
2023/04/16 07:46:50;;;;;;;29.83;21.57;;;7.10;1.00;;;;;;5056983;28;20567;-44
2023/04/16 07:49:15;;;;;;;31.07;23.70;;;7.10;1.00;;;;;;5058156;28;20231;-42
2023/04/16 07:51:41;;;;;;;36.67;26.03;;;7.20;1.00;;;;;;5056959;28;20170;-43
2023/04/16 07:54:06;;;;;;;26.73;21.40;;;7.20;1.00;;;;;;5056204;28;20197;-42
2023/04/16 07:56:32;;;;;;;26.67;21.10;;;7.20;1.00;;;;;;5055395;28;20177;-43
2023/04/16 07:58:58;;;;;;;27.67;21.30;;;7.20;1.00;;;;;;5056838;28;20182;-42
2023/04/16 08:01:23;;;;;;;26.60;22.40;;;7.30;1.00;;;;;;5056099;28;20320;-43
2023/04/16 08:03:50;;;;;;;28.50;21.50;;;7.30;1.00;;;;;;5056823;28;20178;-41
2023/04/16 08:06:15;;;;;;;28.57;21.83;;;7.30;1.00;;;;;;5057612;28;20311;-43
2023/04/16 08:08:41;;;;;;;25.60;21.20;;;7.20;1.00;;;;;;5057522;28;20578;-42
2023/04/16 08:11:06;;;;;;;26.50;21.90;;;7.20;1.00;;;;;;5055531;28;20178;-43
2023/04/16 08:13:32;;;;;;;29.20;22.80;;;7.20;1.00;;;;;;5054830;28;20201;-43
2023/04/16 08:15:57;;;;;;;31.50;23.03;;;7.20;1.00;;;;;;5056025;28;20180;-43
2023/04/16 08:18:23;;;;;;;28.60;21.87;;;7.20;1.00;;;;;;5057076;28;20200;-50
2023/04/16 08:20:49;;;;;;;26.43;20.50;;;7.20;1.00;;;;;;5057608;28;20232;-44
2023/04/16 08:23:15;;;;;;;30.27;20.70;;;7.20;1.00;;;;;;5038981;28;20559;-44
2023/04/16 08:25:40;;;;;;;28.10;22.70;;;7.20;1.00;;;;;;5056096;28;20760;-42
2023/04/16 08:28:06;;;;;;;31.23;26.90;;;7.30;1.00;;;;;;5039216;28;20309;-42
2023/04/16 08:30:32;;;;;;;30.67;23.93;;;7.30;1.00;;;;;;5056018;28;20261;-44
2023/04/16 08:32:58;;;;;;;45.87;32.33;;;7.30;1.00;;;;;;5055392;28;20180;-44
2023/04/16 08:35:23;;;;;;;33.43;24.80;;;7.30;1.00;;;;;;5039980;28;20868;-43
2023/04/16 08:37:49;;;;;;;36.97;28.50;;;7.30;1.00;;;;;;5057626;28;20201;-45
2023/04/16 08:40:15;;;;;;;31.80;25.40;;;7.40;1.00;;;;;;5056427;28;20556;-42
2023/04/16 08:42:46;;;;;;;29.53;25.37;;;7.40;1.00;;;;;;5055027;28;20192;-44
2023/04/16 08:45:18;;;;;;;28.60;22.30;;;7.40;1.00;;;;;;5053873;28;20185;-44
2023/04/16 08:47:46;;;;;;;31.03;23.43;;;7.50;1.00;;;;;;5037472;28;20567;-44
2023/04/16 08:50:14;;;;;;;26.23;22.13;;;7.50;1.00;;;;;;5053704;28;20420;-44
2023/04/16 08:53:03;;;;;;;35.17;26.60;;;7.40;1.00;;;;;;5051480;28;20549;-43
2023/04/16 08:55:37;;;;;;;27.03;21.27;;;7.40;1.00;;;;;;5036477;28;20504;-45
2023/04/16 08:58:13;;;;;;;30.57;22.63;;;7.40;1.00;;;;;;5056101;28;20680;-42
2023/04/16 09:00:42;;;;;;;25.13;20.80;;;7.40;1.00;;;;;;5054975;28;20432;-44
2023/04/16 09:03:09;;;;;;;28.77;22.40;;;7.40;1.00;;;;;;5057192;28;20682;-42
2023/04/16 09:05:38;;;;;;;24.07;19.10;;;7.40;1.00;;;;;;5052870;28;20420;-47
2023/04/16 09:08:05;;;;;;;19.87;15.17;;;8.30;1.00;;;;;;5050285;28;20811;-47
2023/04/16 09:10:31;;;;;;;17.77;13.47;;;9.30;1.00;;;;;;5050138;28;20813;-47
2023/04/16 09:12:57;;;;;;;14.67;13.20;;;10.30;1.00;;;;;;5052292;28;20531;-48
2023/04/16 09:15:24;;;;;;;15.37;12.00;;;11.10;1.00;;;;;;5052177;28;20416;-48
2023/04/16 09:17:51;;;;;;;19.80;15.20;;;11.90;99.90;;;;;;5053833;28;20797;-47
2023/04/16 09:20:17;;;;;;;15.03;13.07;;;12.40;99.90;;;;;;5055141;28;20446;-46
2023/04/16 09:22:43;;;;;;;19.87;16.40;;;12.70;1.00;;;;;;5053763;28;20447;-46
2023/04/16 09:25:11;;;;;;;19.93;17.73;;;12.80;99.90;;;;;;5054575;28;20570;-48
2023/04/16 09:27:36;;;;;;;14.37;12.97;;;13.10;99.90;;;;;;5052589;28;20475;-46
2023/04/16 09:30:21;;;;;;;14.20;12.80;;;13.00;91.40;;;;;;5055081;28;20932;-46
2023/04/16 09:32:48;;;;;;;15.13;13.63;;;13.20;99.90;;;;;;5054788;28;20173;-49
2023/04/16 09:35:14;;;;;;;17.70;15.03;;;13.40;23.20;;;;;;5054843;28;20424;-43
2023/04/16 09:37:40;;;;;;;15.60;14.00;;;13.00;1.00;;;;;;5054179;28;20451;-43
2023/04/16 09:40:06;;;;;;;16.80;15.00;;;12.30;14.90;;;;;;5055774;28;20468;-43
2023/04/16 09:42:35;;;;;;;19.13;15.23;;;11.50;99.90;;;;;;5054026;28;20478;-43
2023/04/16 09:45:00;;;;;;;17.03;15.30;;;10.90;1.00;;;;;;5053274;28;20428;-44
2023/04/16 09:47:39;;;;;;;21.17;18.93;;;10.40;99.90;;;;;;5036651;28;20475;-45
2023/04/16 09:50:06;;;;;;;18.83;15.67;;;9.90;99.90;;;;;;5035760;28;20479;-43
2023/04/16 09:52:37;;;;;;;18.57;16.47;;;9.60;99.90;;;;;;5054994;28;20408;-43
2023/04/16 09:55:03;;;;;;;25.70;21.03;;;9.40;99.90;;;;;;5053651;28;20659;-43
2023/04/16 09:57:29;;;;;;;23.93;18.80;;;9.10;1.00;;;;;;5055591;28;20424;-43
2023/04/16 10:00:00;;;;;;;22.67;17.80;;;8.90;1.00;;;;;;5055574;28;20420;-44
2023/04/16 10:02:28;;;;;;;24.43;19.13;;;8.70;99.90;;;;;;5055871;28;20845;-43
2023/04/16 10:04:54;;;;;;;23.67;18.10;;;8.60;99.90;;;;;;5054642;28;20597;-44
2023/04/16 10:07:20;;;;;;;22.63;19.10;;;8.50;99.90;;;;;;5055528;28;20459;-44
2023/04/16 10:09:47;;;;;;;25.20;19.43;;;8.50;99.90;;;;;;5056431;28;20416;-45
2023/04/16 10:12:13;;;;;;;21.90;18.40;;;8.50;99.90;;;;;;5052625;28;20424;-44
2023/04/16 10:14:40;;;;;;;22.40;17.87;;;8.40;99.90;;;;;;5050425;28;20803;-43
2023/04/16 10:17:06;;;;;;;24.90;19.13;;;8.40;99.90;;;;;;5055585;28;20408;-44
2023/04/16 10:19:32;;;;;;;27.30;18.47;;;8.40;99.90;;;;;;5055589;28;20534;-42
2023/04/16 10:21:59;;;;;;;22.33;18.37;;;8.40;99.90;;;;;;5053704;28;20413;-41
2023/04/16 10:24:26;;;;;;;22.30;18.77;;;8.40;99.90;;;;;;5053528;28;20618;-43
2023/04/16 10:26:52;;;;;;;24.33;18.20;;;8.40;99.90;;;;;;5052304;28;20483;-42
2023/04/16 10:29:20;;;;;;;24.50;18.40;;;8.40;99.90;;;;;;5053146;28;20514;-42
2023/04/16 10:31:46;;;;;;;22.90;18.03;;;8.40;99.90;;;;;;5054137;28;20822;-43
2023/04/16 10:34:12;;;;;;;19.03;16.50;;;8.40;99.90;;;;;;5052469;28;20439;-43
2023/04/16 10:36:39;;;;;;;22.50;17.43;;;8.40;99.90;;;;;;5036400;28;20428;-43
2023/04/16 10:39:09;;;;;;;21.73;17.50;;;8.30;99.90;;;;;;5053282;28;20644;-43
2023/04/16 10:41:36;;;;;;;23.33;19.70;;;8.30;99.90;;;;;;5054792;28;20495;-43
2023/04/16 10:44:11;;;;;;;23.50;18.83;;;8.30;1.00;;;;;;5054017;28;20807;-43
2023/04/16 10:46:45;;;;;;;25.43;21.43;;;8.30;99.90;;;;;;5053324;28;20458;-44
2023/04/16 10:49:16;;;;;;;26.70;20.93;;;8.30;1.00;;;;;;5053705;28;20480;-44
2023/04/16 10:51:42;;;;;;;25.30;21.53;;;8.30;1.00;;;;;;5055162;28;20443;-44
2023/04/16 10:54:10;;;;;;;26.87;20.97;;;8.30;99.90;;;;;;5037092;28;20507;-44
2023/04/16 10:56:36;;;;;;;30.40;24.73;;;8.30;99.90;;;;;;5052964;28;20448;-45
2023/04/16 10:59:05;;;;;;;30.80;24.80;;;8.20;99.90;;;;;;5055559;28;20844;-44
2023/04/16 11:01:34;;;;;;;31.73;23.93;;;8.20;99.90;;;;;;5052888;28;20424;-43
2023/04/16 11:04:21;;;;;;;28.50;22.47;;;8.20;1.00;;;;;;5054090;28;20432;-44
2023/04/16 11:07:15;;;;;;;25.17;19.73;;;8.20;1.00;;;;;;5045448;28;20735;-42
2023/04/16 11:09:52;;;;;;;25.67;22.60;;;8.30;1.00;;;;;;5055718;28;20447;-42
2023/04/16 11:12:23;;;;;;;21.03;17.87;;;8.30;1.00;;;;;;5052954;28;20709;-45
2023/04/16 11:14:53;;;;;;;26.60;21.47;;;8.30;1.00;;;;;;5053459;28;20456;-44
2023/04/16 11:17:20;;;;;;;32.50;24.80;;;8.30;1.00;;;;;;5054679;28;20434;-42
2023/04/16 11:19:46;;;;;;;30.60;23.80;;;8.40;1.00;;;;;;5050747;28;20451;-43
2023/04/16 11:22:15;;;;;;;25.07;19.27;;;8.40;1.00;;;;;;5053768;28;20408;-44
2023/04/16 11:24:44;;;;;;;21.60;17.37;;;8.50;1.00;;;;;;5053289;28;20420;-44
2023/04/16 11:27:14;;;;;;;23.33;17.03;;;8.60;1.00;;;;;;5053760;28;20472;-44
2023/04/16 11:29:40;;;;;;;18.27;13.30;;;8.60;99.90;;;;;;5055989;28;20440;-44
2023/04/16 11:32:06;;;;;;;25.70;19.20;;;8.70;99.90;;;;;;5057864;28;20717;-43
2023/04/16 11:34:32;;;;;;;22.13;16.73;;;8.70;99.90;;;;;;5056581;28;20174;-43
2023/04/16 11:36:57;;;;;;;21.50;16.67;;;8.80;99.90;;;;;;5059126;28;20170;-43
2023/04/16 11:39:23;;;;;;;24.47;18.63;;;8.80;99.90;;;;;;5058315;28;20212;-43
2023/04/16 11:41:51;;;;;;;22.47;17.60;;;8.80;99.90;;;;;;5057954;28;20170;-43
2023/04/16 11:44:17;;;;;;;22.30;16.13;;;8.80;99.90;;;;;;5059504;28;20189;-42
2023/04/16 11:46:42;;;;;;;16.23;13.83;;;8.80;99.90;;;;;;5057509;28;20459;-42
2023/04/16 11:49:08;;;;;;;16.70;14.33;;;8.80;99.90;;;;;;5058426;28;20220;-43
2023/04/16 11:51:42;;;;;;;21.37;17.87;;;8.80;99.90;;;;;;5058009;28;20182;-44
2023/04/16 11:54:07;;;;;;;16.83;14.50;;;8.80;99.90;;;;;;5055321;28;20172;-45
2023/04/16 11:56:35;;;;;;;18.97;12.90;;;8.90;99.90;;;;;;5054896;28;20416;-45
2023/04/16 11:59:08;;;;;;;14.13;10.93;;;9.10;1.00;;;;;;5054574;28;20190;-46
2023/04/16 12:01:35;;;;;;;14.60;13.10;;;9.30;99.90;;;;;;5055821;28;20420;-45
2023/04/16 12:04:01;;;;;;;26.33;21.07;;;9.50;99.90;;;;;;5053964;28;20826;-44
2023/04/16 12:06:27;;;;;;;18.47;15.03;;;9.80;99.90;;;;;;5053538;28;20432;-44
2023/04/16 12:08:53;;;;;;;16.77;13.50;;;10.10;99.90;;;;;;5056189;28;20466;-46
2023/04/16 12:11:19;;;;;;;18.97;15.77;;;10.30;1.00;;;;;;5054696;28;20186;-44
2023/04/16 12:14:08;;;;;;;16.67;14.23;;;10.50;1.00;;;;;;5038616;28;20479;-43
2023/04/16 12:16:34;;;;;;;8.73;7.83;;;10.70;99.90;;;;;;5057277;28;20430;-43
2023/04/16 12:19:02;;;;;;;25.40;22.63;;;10.60;1.00;;;;;;5056660;28;20503;-43
2023/04/16 12:21:47;;;;;;;14.20;12.70;;;10.50;55.40;;;;;;5056486;28;20698;-43
2023/04/16 12:24:22;;;;;;;20.00;16.43;;;10.30;99.90;;;;;;5057235;28;20428;-42
2023/04/16 12:26:56;;;;;;;20.80;17.00;;;10.10;1.00;;;;;;5055294;28;20451;-42
2023/04/16 12:29:26;;;;;;;21.90;19.53;;;10.00;1.00;;;;;;5055824;28;20447;-46
2023/04/16 12:31:53;;;;;;;29.10;23.40;;;9.90;1.00;;;;;;5055862;28;20421;-44
2023/04/16 12:34:20;;;;;;;10.93;9.83;;;9.80;16.20;;;;;;5056638;28;20896;-42
2023/04/16 12:36:47;;;;;;;11.53;9.10;;;9.70;99.70;;;;;;5056411;28;20412;-45
2023/04/16 12:39:13;;;;;;;14.87;13.47;;;9.60;33.90;;;;;;5056197;28;20455;-43
2023/04/16 12:41:40;;;;;;;6.63;6.03;;;9.60;99.90;;;;;;5056060;28;20550;-46
2023/04/16 12:44:08;;;;;;;6.10;5.50;;;9.60;99.90;;;;;;5055509;28;20412;-48
2023/04/16 12:46:35;;;;;;;6.97;6.33;;;9.50;99.90;;;;;;5058098;28;20786;-43